Latest Weather Observations for Tarcoola

IDS60801

Issued at 4:05 pm CST Thursday 17 April 2014 (issued every 30 minutes, with the page automatically refreshed every 10 minutes)

About weather observations | Map of weather stations | Latest weather observations for SA | Other Formats
Station Details ID: 016098 Name: TARCOOLA AERO Lat: -30.71 Lon: 134.58 Height: 123.0 m
Data from the previous 72 hours. | See also: Recent months at Tarcoola
Date/Time
CST
Temp
°C
App
Temp
°C
Dew
Point
Rel
Hum
%
Delta-T
°C
Wind Press
QNH
hPa
Press
MSL
hPa
Rain
since 9 am
mm
Dir
 
Spd
km/h
Gust
km/h
Spd
kts
Gust
kts
17/04:00pm 29.7 26.4 4.4 20 13.0 WNW 11 20 6 11 1019.7 - 0.0
17/03:30pm 29.8 26.9 4.4 20 13.1 NNW 9 17 5 9 1019.8 - 0.0
17/03:00pm 29.6 25.9 4.3 20 13.0 NW 13 20 7 11 1019.9 1019.7 0.0
17/02:30pm 29.4 26.8 4.1 20 13.0 WNW 7 17 4 9 1020.0 - 0.0
17/02:00pm 29.3 25.1 4.0 20 13.0 NW 15 19 8 10 1020.4 - 0.0
17/01:30pm 28.5 24.7 4.1 21 12.5 NNW 13 20 7 11 1020.9 - 0.0
17/01:00pm 28.0 25.0 4.3 22 12.1 NNW 9 20 5 11 1021.4 - 0.0
17/12:30pm 27.7 23.9 4.1 22 12.0 NNW 13 20 7 11 1022.0 - 0.0
17/12:00pm 26.9 23.2 4.6 24 11.3 NW 13 20 7 11 1022.4 1022.1 0.0
17/11:30am 26.9 24.0 6.3 27 10.8 NNW 11 19 6 10 1022.8 - 0.0
17/11:00am 25.7 21.9 5.8 28 10.3 N 15 22 8 12 1022.9 - 0.0
17/10:30am 25.1 21.5 6.8 31 9.6 N 15 20 8 11 1023.0 - 0.0
17/10:00am 23.5 20.0 7.2 35 8.5 N 15 20 8 11 1023.0 - 0.0
17/09:30am 21.9 19.4 8.1 41 7.3 NNE 11 17 6 9 1023.1 - 0.0
17/09:00am 20.1 18.5 10.2 53 5.3 NE 9 13 5 7 1023.0 1022.7 0.0
17/08:30am 17.7 16.8 10.6 63 3.8 ENE 6 7 3 4 1022.8 - 0.0
17/08:00am 15.0 15.0 9.8 71 2.7 CALM 0 0 0 0 1022.5 - 0.0
17/07:30am 12.3 12.3 9.9 85 1.2 CALM 0 0 0 0 1022.2 - 0.0
17/07:00am 10.9 10.6 8.5 85 1.2 CALM 0 0 0 0 1021.8 - 0.0
17/06:30am 10.9 10.6 8.7 86 1.1 CALM 0 0 0 0 1021.6 - 0.0
17/06:00am 11.0 10.6 8.2 83 1.4 WSW 0 0 0 0 1021.4 1021.1 0.0
17/05:30am 11.4 10.3 8.6 83 1.4 WSW 4 6 2 3 1021.2 - 0.0
17/05:00am 11.5 9.8 8.5 82 1.5 WSW 7 7 4 4 1021.0 - 0.0
17/04:30am 11.7 10.1 8.6 81 1.5 WSW 7 7 4 4 1020.7 - 0.0
17/04:00am 12.0 10.4 8.7 80 1.7 WSW 7 9 4 5 1020.6 - 0.0
17/03:30am 12.4 11.0 8.7 78 1.9 WSW 6 7 3 4 1020.5 - 0.0
17/03:00am 12.8 11.2 8.9 77 2.0 WSW 7 7 4 4 1020.5 1020.3 0.0
17/02:30am 13.0 11.1 8.9 76 2.1 WSW 9 9 5 5 1020.7 - 0.0
17/02:00am 13.4 12.0 8.9 74 2.3 WSW 6 7 3 4 1021.0 - 0.0
17/01:30am 13.9 12.6 9.1 73 2.5 WSW 6 7 3 4 1021.0 - 0.0
17/01:00am 14.2 12.8 8.8 70 2.7 WSW 6 7 3 4 1021.2 - 0.0
17/12:30am 15.0 13.7 9.1 68 3.0 SW 6 7 3 4 1021.4 - 0.0
17/12:00am 15.7 14.1 8.9 64 3.5 WSW 7 9 4 5 1021.6 1021.3 0.0
 
Date/Time
CST
Temp
°C
App
Temp
°C
Dew
Point
Rel
Hum
%
Delta-T
°C
Wind Press
QNH
hPa
Press
MSL
hPa
Rain
since 9 am
mm
Dir
 
Spd
km/h
Gust
km/h
Spd
kts
Gust
kts
16/11:30pm 16.6 15.2 8.8 60 4.0 SW 6 7 3 4 1021.7 - 0.0
16/11:00pm 16.9 15.4 8.6 58 4.3 S 6 7 3 4 1021.9 - 0.0
16/10:30pm 18.2 17.5 8.5 53 5.0 S 2 7 1 4 1021.9 - 0.0
16/10:00pm 18.4 16.8 8.1 51 5.3 SSW 6 7 3 4 1021.9 - 0.0
16/09:30pm 19.9 17.3 7.6 45 6.3 SSE 11 13 6 7 1021.6 - 0.0
16/09:00pm 21.0 17.5 7.3 41 7.0 S 15 20 8 11 1021.3 1021.0 0.0
16/08:30pm 19.3 16.8 6.4 43 6.5 SSE 9 11 5 6 1020.9 - 0.0
16/08:00pm 20.1 17.1 6.1 40 7.0 SSE 11 13 6 7 1020.5 - 0.0
16/07:30pm 20.4 18.2 6.4 40 7.1 SSE 7 9 4 5 1020.1 - 0.0
16/07:00pm 21.9 19.1 5.3 34 8.3 SSE 9 11 5 6 1019.8 - 0.0
16/06:30pm 23.9 20.8 3.8 27 9.9 S 9 11 5 6 1019.6 - 0.0
16/06:00pm 25.7 21.4 3.0 23 11.1 S 15 20 8 11 1019.4 1019.2 0.0
16/05:30pm 26.6 23.5 3.8 23 11.4 SSW 9 17 5 9 1019.2 - 0.0
16/05:00pm 27.2 23.6 3.0 21 12.0 SW 11 17 6 9 1019.1 - 0.0
16/04:30pm 27.6 24.4 3.3 21 12.2 SW 9 17 5 9 1019.1 - 0.0
16/04:00pm 27.0 23.8 2.8 21 12.0 SW 9 19 5 10 1019.1 - 0.0
16/03:30pm 27.1 23.5 2.9 21 12.0 W 11 17 6 9 1019.1 - 0.0
16/03:00pm 26.9 23.0 3.4 22 11.7 WNW 13 19 7 10 1019.5 1019.3 0.0
16/02:30pm 26.7 24.0 3.9 23 11.5 SSW 7 17 4 9 1019.6 - 0.0
16/02:00pm 26.0 22.7 4.5 25 10.9 SW 11 20 6 11 1020.1 - 0.0
16/01:30pm 25.4 21.2 4.0 25 10.7 WSW 15 26 8 14 1020.5 - 0.0
16/01:00pm 25.6 21.7 3.5 24 11.0 W 13 20 7 11 1021.0 - 0.0
16/12:30pm 25.0 22.1 4.7 27 10.2 WSW 9 20 5 11 1021.3 - 0.0
16/12:00pm 24.5 21.3 5.3 29 9.7 W 11 20 6 11 1021.7 1021.4 0.0
16/11:30am 23.8 21.2 7.8 36 8.5 WNW 11 22 6 12 1022.3 - 0.0
16/11:00am 23.0 21.2 7.9 38 8.0 WNW 7 13 4 7 1022.7 - 0.0
16/10:30am 22.6 21.0 8.0 39 7.7 NNW 6 9 3 5 1022.7 - 0.0
16/10:00am 21.4 20.0 9.0 45 6.6 NNW 6 9 3 5 1022.9 - 0.0
16/09:30am 20.2 18.8 9.5 50 5.7 N 7 9 4 5 1022.7 - 0.0
16/09:00am 18.2 18.3 10.1 59 4.3 CALM 0 0 0 0 1022.4 1022.1 0.0
16/08:30am 15.4 15.5 10.2 71 2.7 CALM 0 0 0 0 1022.4 - 0.0
16/08:00am 13.1 13.2 10.3 83 1.5 CALM 0 0 0 0 1022.3 - 0.0
16/07:30am 11.1 11.0 9.4 89 0.9 CALM 0 0 0 0 1021.9 - 0.0
16/07:00am 9.9 9.5 8.2 89 0.8 CALM 0 0 0 0 1021.5 - 0.0
16/06:30am 10.0 9.6 8.1 88 0.9 CALM 0 0 0 0 1021.5 - 0.0
16/06:00am 10.2 8.7 8.3 88 0.9 SSW 6 7 3 4 1021.5 1021.2 0.0
16/05:30am 10.4 8.7 8.3 87 1.0 SSW 7 9 4 5 1021.6 - 0.0
16/05:00am 11.0 9.0 8.8 86 1.1 SW 9 11 5 6 1021.4 - 0.0
16/04:30am 10.9 8.5 8.7 86 1.1 WSW 11 11 6 6 1021.4 - 0.0
16/04:00am 11.0 9.0 8.6 85 1.2 WSW 9 11 5 6 1021.2 - 0.0
16/03:30am 11.5 9.5 8.7 83 1.4 WSW 9 11 5 6 1021.2 - 0.0
16/03:00am 11.9 9.9 8.7 81 1.6 WSW 9 11 5 6 1021.0 1020.7 0.0
16/02:30am 12.3 10.0 9.0 80 1.7 SW 11 13 6 7 1021.2 - 0.0
16/02:00am 12.1 10.2 8.9 81 1.6 WSW 9 9 5 5 1021.0 - 0.0
16/01:30am 12.5 10.6 9.0 79 1.8 WSW 9 11 5 6 1021.4 - 0.0
16/01:00am 13.0 11.5 9.3 78 1.9 WSW 7 9 4 5 1021.6 - 0.0
16/12:30am 14.0 12.2 9.6 75 2.3 WSW 9 11 5 6 1021.7 - 0.0
16/12:00am 14.0 12.8 10.4 79 1.9 NNW 7 20 4 11 1021.8 1021.5 0.0
 
Date/Time
CST
Temp
°C
App
Temp
°C
Dew
Point
Rel
Hum
%
Delta-T
°C
Wind Press
QNH
hPa
Press
MSL
hPa
Rain
since 9 am
mm
Dir
 
Spd
km/h
Gust
km/h
Spd
kts
Gust
kts
15/11:30pm 14.8 15.1 10.8 77 2.1 CALM 0 0 0 0 1021.9 - 0.0
15/11:00pm 15.1 15.5 11.1 77 2.1 CALM 0 0 0 0 1022.1 - 0.0
15/10:30pm 15.4 14.3 10.6 73 2.6 ENE 7 9 4 5 1021.8 - 0.0
15/10:00pm 15.9 14.8 10.7 71 2.8 ENE 7 9 4 5 1022.0 - 0.0
15/09:30pm 16.6 15.4 10.2 66 3.4 SE 7 9 4 5 1022.0 - 0.0
15/09:00pm 16.8 15.8 10.4 66 3.4 SSW 6 6 3 3 1022.1 1021.8 0.0
15/08:30pm 17.7 16.4 9.8 60 4.2 SE 7 9 4 5 1021.6 - 0.0
15/08:00pm 18.8 17.1 9.8 56 4.8 E 9 11 5 6 1021.1 - 0.0
15/07:30pm 19.4 18.0 9.6 53 5.2 E 7 9 4 5 1020.9 - 0.0
15/07:00pm 20.4 18.5 9.0 48 6.1 E 9 11 5 6 1020.6 - 0.0
15/06:30pm 21.7 19.7 8.6 43 7.0 ESE 9 9 5 5 1020.5 - 0.0
15/06:00pm 23.2 20.6 7.7 37 8.1 SE 11 13 6 7 1020.3 1020.1 0.0
15/05:30pm 24.4 23.8 7.5 34 8.9 CALM 0 0 0 0 1020.1 - 0.0
15/05:00pm 24.3 22.6 7.4 34 8.9 SSE 6 11 3 6 1020.1 - 0.0
15/04:30pm 24.0 21.3 7.2 34 8.8 ESE 11 20 6 11 1020.2 - 0.0
15/04:00pm 24.3 22.1 7.9 35 8.7 NE 9 15 5 8 1020.1 - 0.0
15/03:30pm 24.6 22.7 7.7 34 9.0 SE 7 13 4 7 1020.0 - 0.0
15/03:00pm 24.6 23.0 8.1 35 8.8 SE 6 15 3 8 1020.3 1020.1 0.0
15/02:30pm 25.0 23.5 8.5 35 8.9 NNW 6 9 3 5 1020.5 - 0.0
15/02:00pm 23.9 21.9 8.7 38 8.2 ESE 9 17 5 9 1020.9 - 0.0
15/01:30pm 23.4 22.0 8.7 39 7.9 SSE 6 13 3 7 1021.2 - 0.0
15/01:00pm 23.1 20.7 8.8 40 7.7 SE 11 17 6 9 1021.5 - 0.0
15/12:30pm 22.2 19.1 8.7 42 7.2 SE 15 24 8 13 1022.2 - 0.0
15/12:00pm 22.0 18.8 8.5 42 7.1 SE 15 20 8 11 1022.7 1022.4 0.0
15/11:30am 21.4 18.7 9.0 45 6.6 SSE 13 19 7 10 1023.2 - 0.0
15/11:00am 20.8 18.2 9.4 48 6.1 SE 13 17 7 9 1023.4 - 0.0
15/10:30am 20.1 18.0 9.9 52 5.5 ESE 11 17 6 9 1023.6 - 0.0
15/10:00am 19.5 17.5 10.2 55 5.0 ESE 11 15 6 8 1023.6 - 0.0
15/09:30am 18.4 16.0 10.0 58 4.5 ESE 13 19 7 10 1023.5 - 0.0
15/09:00am 17.4 15.0 10.1 62 3.9 ESE 13 20 7 11 1023.5 1023.2 0.0
15/08:30am 16.7 14.4 10.3 66 3.4 SSE 13 20 7 11 1023.1 - 0.0
15/08:00am 13.9 14.1 10.5 80 1.8 CALM 0 6 0 3 1022.8 - 0.0
15/07:30am 12.0 12.1 10.1 88 1.0 CALM 0 6 0 3 1022.6 - 0.0
15/07:00am 11.4 9.7 9.8 90 0.8 SW 9 11 5 6 1022.9 - 0.0
15/06:30am 11.6 9.5 9.9 89 0.9 WSW 11 13 6 7 1022.9 - 0.0
15/06:00am 11.6 9.6 10.0 90 0.8 WSW 11 13 6 7 1022.8 1022.5 0.0
15/05:30am 11.9 10.2 10.0 88 1.0 SW 9 11 5 6 1022.4 - 0.0
15/05:00am 11.8 10.1 10.0 89 0.9 W 9 11 5 6 1022.2 - 0.0
15/04:30am 11.9 10.6 10.0 88 1.0 WSW 7 9 4 5 1022.2 - 0.0
15/04:00am 12.1 10.8 10.0 87 1.1 SSW 7 7 4 4 1022.0 - 0.0
15/03:30am 12.4 11.2 10.3 87 1.1 SW 7 9 4 5 1022.1 - 0.0
15/03:00am 12.8 11.7 10.5 86 1.2 SW 7 7 4 4 1022.0 1021.7 0.0
15/02:30am 13.2 11.4 10.7 85 1.3 SW 11 13 6 7 1022.4 - 0.0
15/02:00am 13.4 11.5 10.6 83 1.5 SSW 11 13 6 7 1022.2 - 0.0
15/01:30am 14.0 11.8 10.8 81 1.7 WSW 13 15 7 8 1022.3 - 0.0
15/01:00am 14.2 13.7 10.6 79 1.9 SW 4 9 2 5 1022.2 - 0.0
15/12:30am 14.0 12.5 10.4 79 1.9 SW 9 9 5 5 1022.1 - 0.0
15/12:00am 14.1 12.8 10.1 77 2.1 SW 7 7 4 4 1022.3 1022.0 0.0
 
Date/Time
CST
Temp
°C
App
Temp
°C
Dew
Point
Rel
Hum
%
Delta-T
°C
Wind Press
QNH
hPa
Press
MSL
hPa
Rain
since 9 am
mm
Dir
 
Spd
km/h
Gust
km/h
Spd
kts
Gust
kts
14/11:30pm 14.2 12.4 9.6 74 2.4 SW 9 11 5 6 1022.5 - 0.0
14/11:00pm 14.7 12.4 8.9 68 3.0 SW 11 13 6 7 1022.5 - 0.0
14/10:30pm 15.6 12.9 9.1 65 3.4 SW 13 17 7 9 1022.6 - 0.0
14/10:00pm 17.5 15.4 8.4 55 4.7 S 9 11 5 6 1022.8 - 0.0
14/09:30pm 18.3 15.9 8.6 53 5.0 SSE 11 15 6 8 1022.7 - 0.0
14/09:00pm 17.6 15.7 9.0 57 4.5 S 9 11 5 6 1022.5 1022.2 0.0
14/08:30pm 18.4 16.3 8.4 52 5.2 S 9 11 5 6 1022.1 - 0.0
14/08:00pm 18.7 16.5 7.8 49 5.6 SSE 9 9 5 5 1021.8 - 0.0
14/07:30pm 19.7 17.3 6.8 43 6.5 SE 9 11 5 6 1021.5 - 0.0
14/07:00pm 20.7 17.3 5.9 38 7.4 SE 13 15 7 8 1021.1 - 0.0
14/06:30pm 21.9 17.3 5.8 35 8.1 SSE 19 24 10 13 1020.7 - 0.0
14/06:00pm 22.7 19.0 6.5 35 8.3 S 15 20 8 11 1020.3 1020.1 0.0
14/05:30pm 23.3 19.5 7.4 36 8.3 SSE 17 24 9 13 1020.0 - 0.0
14/05:00pm 23.8 20.5 6.6 33 8.9 S 13 22 7 12 1019.8 - 0.0
14/04:30pm 24.0 20.6 7.6 35 8.7 S 15 24 8 13 1019.7 - 0.0

Other Formats:

Comma delimited format used in spreadsheet applications
http://www.bom.gov.au/fwo/IDS60801/IDS60801.94655.axf

JavaScript Object Notation format (JSON) in row-major order
http://www.bom.gov.au/fwo/IDS60801/IDS60801.94655.json